Ride Results

Rankin Springs (11-03-2006)
Ride distance: 80.0 km

Outcomes - Rankin Springs (11-03-2006)
Division No. of Entries Retired / DNE Completed Withdrawn Ineligible V/O Percentage Completed
HW 9 - 9 - - - 100.00%
MW 21 - 16 2 - 3 76.19%
LW 15 - 11 3 - 1 73.33%
JN 7 - 4 1 - 2 57.14%
Totals 52 - 40 6 - 6 76.92%
Results - Rankin Springs (11-03-2006)
No. Rider Horse Place Time Leg Speeds Total
Km/Hr
H/R bpm
Heavyweight
55 Scott Davenport Alhambra Pierrot 1 5:09:00 16.4, 14.7 15.53 37, 42, 47 (Avg:44)
59 Laurie Stevens Snowy Mountain Cascade 2 5:12:00 15.8, 14.9 15.38 38, 40, 42 (Avg:41)
56 Frank Mollema A'Landell Image 3 6:31:00 13.3, 11.3 12.28 35, 43, 47 (Avg:45)
62 Mark Freeman Cedar Ridge River of Dreams 4 6:53:00 12.8, 10.6 11.62 30, 42, 37 (Avg:39)
57 Haydn Fisher Umayyed Silver Taye 5 7:07:00 12.7, 10.0 11.24 35, 45, 51 (Avg:48)
60 Brad Jones Kalim 6 7:15:00 11.9, 10.2 11.03 38, 45, 48 (Avg:46)
58 Allan Caslick Clovelly Park Kazeem 7 7:38:00 11.3, 9.7 10.48 42, 41, 48 (Avg:44)
61 Bern Harvey Velona Sinttara 8 7:45:00 10.6, 10.0 10.32 37, 40, 48 (Avg:44)
63 Gavin Groth Rowallan Rising Sun 9 7:47:00 11.2, 9.4 10.28 39, 45, 52 (Avg:48)
Middleweight
46 Meg Wade China Doll 1 4:59:00 17.1, 15.0 16.05 28, 45, 38 (Avg:41)
43 Asher Batty Magic Glenn Kadet 2 5:07:00 16.5, 14.8 15.64 31, 44, 41 (Avg:42)
45 Jessica Dastani Castlebar Blue Chip 2 5:07:00 16.5, 14.8 15.64 32, 35, 43 (Avg:39)
35 Daphne Phillips Rowallan Lassitor 4 5:48:00 16.7, 11.7 13.79 30, 52, 45 (Avg:48)
51 Alan Lindsay Deeka Park William Bonney 5 5:49:00 14.0, 13.4 13.75 31, 40, 43 (Avg:41)
42 Chris Noonan Bridle Track Dasha 6 5:54:00 16.7, 11.3 13.56 35, 42, 41 (Avg:41)
38 Mette Sutton Tuldar The Magician 6 5:54:00 16.7, 11.3 13.56 38, 51, 57 (Avg:54)
36 Michael Leary Jirrima Smooth Sailor 8 6:01:00 13.4, 13.1 13.30 30, 44, 60 (Avg:52)
52 Jody O'Leary-Gowen Victoria Park Jebadiah 9 6:26:00 13.2, 11.7 12.44 34, 41, 45 (Avg:43)
41 Brett Willis One Eye Crystal Dreams 10 6:36:00 13.3, 11.1 12.12 33, 47, 45 (Avg:46)
50 Donna Tidswell State Secret 11 6:39:00 12.4, 11.5 12.03 36, 47, 49 (Avg:48)
44 Brodie Freeman Cedar Ridge Golden Heart 12 6:53:00 12.8, 10.6 11.62 38, 46, 43 (Avg:44)
53 Lesley Freeman Cedar Ridge Fire N Gold 12 6:53:00 13.2, 10.3 11.62 36, 40, 43 (Avg:41)
39 Gail Fisher Aylah 14 7:07:00 12.7, 10.0 11.24 33, 45, 52 (Avg:48)
49 Ben Caslick Kayali Faras 15 7:38:00 11.3, 9.7 10.48 41, 49, 54 (Avg:51)
48 Shan Symons Hazeldean Falaan 15 7:38:00 11.3, 9.7 10.48 42, 44, 48 (Avg:46)
33 Brodie Ashman A'Landell Grand Migay Lame L2 0:00:00 10.6, 8.7 - 36, 46, 44 (Avg:45)
34 Susan Pritchard Gundy Lame L2 0:00:00 10.6, 8.7 - 36, 45, 44 (Avg:44)
37 Duncan McLaughlin Revelwood Shaja Widthdrawn L1 0:00:00 - - 30, 49 (Avg:49)
47 John Symons Forest Dale Xpose Heart Rate L1 0:00:00 23.0 - 33, 73 (Avg:73)
44a Kristie Taprell Kurrajong Concorde Widthdrawn P/R 0:00:00 - - -
Lightweight
24 Kate Jenour Magic Glenn Charlie Brown 1 5:07:00 16.5, 14.8 15.64 34, 38, 47 (Avg:42)
25 Erin Mostead Nahsaari 1 5:07:00 16.5, 14.8 15.64 30, 40, 48 (Avg:44)
19 Dianne Luker Topline Sophine 3 5:43:00 16.6, 12.0 13.99 30, 50, 51 (Avg:50)
22 Sue McLaughlin Cudgelbar Tarquin 3 5:43:00 15.1, 12.9 13.99 31, 45, 51 (Avg:48)
30 Telea Leary Conroy 5 6:01:00 13.2, 13.3 13.30 32, 39, 51 (Avg:45)
29 Nikki Tucker Sanlargo Mystique 6 6:39:00 12.4, 11.5 12.03 30, 39, 40 (Avg:39)
28 Wendy Jones Nioka Park Sorceress 7 7:15:00 11.9, 10.2 11.03 37, 46, 49 (Avg:47)
21 Danielle Beard Protocol 8 7:38:00 12.1, 9.2 10.48 40, 46, 49 (Avg:47)
17 Lyndell McGowan A'Landell Majestic 9 7:45:00 10.6, 10.0 10.32 34, 36, 41 (Avg:38)
26 Lee Duff Judeesia Splash 10 7:47:00 10.8, 9.7 10.28 36, 43, 46 (Avg:44)
31 Fiona Groth Cameo Stormboy 10 7:47:00 11.2, 9.4 10.28 38, 47, 53 (Avg:50)
20 Sara Beckinsale Gravy Train Lame L2 0:00:00 12.3, 8.7 - 30, 40, 45 (Avg:42)
27 Kate Campbell Assateague Sohaala Widthdrawn L1 0:00:00 - - 35, 42 (Avg:42)
23 Barb Giddins Rothlynne Quincey Widthdrawn L1 0:00:00 - - 32, 41 (Avg:41)
32 Kim Strappazon-Mueller Ainslie Zilka Widthdrawn L1 0:00:00 - - 34, 52 (Avg:52)
Junior
8 Madeleine Whyte Patria Azra 1 6:26:00 15.0, 10.5 12.44 39, 41, 44 (Avg:42)
3 Stacey Booth-Mollema Churinga J'amee 2 6:31:00 13.3, 11.3 12.28 35, 46, 57 (Avg:51)
4 Jamie Mollema Omani Strike A Light 3 6:32:00 13.3, 11.3 12.24 32, 43, 50 (Avg:46)
6 Allix Jones Sarabbi 4 7:15:00 11.9, 10.2 11.03 38, 45, 60 (Avg:52)
7 Matthew Groth Sideshow Bob Heart Rate L2 0:00:00 11.2, 9.4 - 38, 46, 70 (Avg:58)
1 Sharna Harvey Binks Lame L2 0:00:00 11.2, 38.0 - 36, 48, 46 (Avg:47)
5 Brooke Campbell Carlwood Park Sam Widthdrawn L1 0:00:00 - - 43, 41 (Avg:41)